sensor_id;sensor_type;location;lat;lon;timestamp;temperature;humidity
26212;DHT22;13951;49.516;6.094;2024-03-07T00:02:27;7.30;99.90
26212;DHT22;13951;49.516;6.094;2024-03-07T00:05:06;7.30;99.90
26212;DHT22;13951;49.516;6.094;2024-03-07T00:07:42;7.20;99.90
26212;DHT22;13951;49.516;6.094;2024-03-07T00:10:16;7.20;99.90
26212;DHT22;13951;49.516;6.094;2024-03-07T00:12:51;7.20;99.90
26212;DHT22;13951;49.516;6.094;2024-03-07T00:15:25;7.20;99.90
26212;DHT22;13951;49.516;6.094;2024-03-07T00:18:01;7.20;99.90
26212;DHT22;13951;49.516;6.094;2024-03-07T00:20:35;7.10;99.90
26212;DHT22;13951;49.516;6.094;2024-03-07T00:23:11;7.20;99.90
26212;DHT22;13951;49.516;6.094;2024-03-07T00:25:44;7.10;99.90
26212;DHT22;13951;49.516;6.094;2024-03-07T00:28:18;7.10;99.90
26212;DHT22;13951;49.516;6.094;2024-03-07T00:30:53;7.00;99.90
26212;DHT22;13951;49.516;6.094;2024-03-07T00:33:28;7.00;99.90
26212;DHT22;13951;49.516;6.094;2024-03-07T00:36:22;6.90;99.90
26212;DHT22;13951;49.516;6.094;2024-03-07T00:38:56;7.00;99.90
26212;DHT22;13951;49.516;6.094;2024-03-07T00:41:30;6.90;99.90
26212;DHT22;13951;49.516;6.094;2024-03-07T00:44:05;6.90;99.90
26212;DHT22;13951;49.516;6.094;2024-03-07T00:46:43;6.90;99.90
26212;DHT22;13951;49.516;6.094;2024-03-07T00:49:16;6.90;99.90
26212;DHT22;13951;49.516;6.094;2024-03-07T00:51:52;6.90;99.90
26212;DHT22;13951;49.516;6.094;2024-03-07T00:54:26;6.90;99.90
26212;DHT22;13951;49.516;6.094;2024-03-07T00:57:00;6.90;99.90
26212;DHT22;13951;49.516;6.094;2024-03-07T00:59:34;7.00;99.90
26212;DHT22;13951;49.516;6.094;2024-03-07T01:02:07;6.90;99.90
26212;DHT22;13951;49.516;6.094;2024-03-07T01:04:43;7.00;99.90
26212;DHT22;13951;49.516;6.094;2024-03-07T01:07:18;7.00;99.90
26212;DHT22;13951;49.516;6.094;2024-03-07T01:09:55;7.00;99.90
26212;DHT22;13951;49.516;6.094;2024-03-07T01:12:29;7.00;99.90
26212;DHT22;13951;49.516;6.094;2024-03-07T01:15:08;7.00;99.90
26212;DHT22;13951;49.516;6.094;2024-03-07T01:17:43;7.00;99.90
26212;DHT22;13951;49.516;6.094;2024-03-07T01:20:18;7.00;99.90
26212;DHT22;13951;49.516;6.094;2024-03-07T01:22:52;7.00;99.90
26212;DHT22;13951;49.516;6.094;2024-03-07T01:25:26;7.00;99.90
26212;DHT22;13951;49.516;6.094;2024-03-07T01:28:00;7.00;99.90
26212;DHT22;13951;49.516;6.094;2024-03-07T01:30:34;7.00;99.90
26212;DHT22;13951;49.516;6.094;2024-03-07T01:33:08;7.10;99.90
26212;DHT22;13951;49.516;6.094;2024-03-07T01:35:44;7.10;99.90
26212;DHT22;13951;49.516;6.094;2024-03-07T01:38:19;7.10;99.90
26212;DHT22;13951;49.516;6.094;2024-03-07T01:40:55;7.10;99.90
26212;DHT22;13951;49.516;6.094;2024-03-07T01:43:29;7.10;99.90
26212;DHT22;13951;49.516;6.094;2024-03-07T01:46:04;7.10;99.90
26212;DHT22;13951;49.516;6.094;2024-03-07T01:48:38;7.10;99.90
26212;DHT22;13951;49.516;6.094;2024-03-07T01:51:15;7.10;99.90
26212;DHT22;13951;49.516;6.094;2024-03-07T01:53:49;7.10;99.90
26212;DHT22;13951;49.516;6.094;2024-03-07T01:56:23;7.10;99.90
26212;DHT22;13951;49.516;6.094;2024-03-07T01:58:58;7.10;99.90
26212;DHT22;13951;49.516;6.094;2024-03-07T02:01:34;7.10;99.90
26212;DHT22;13951;49.516;6.094;2024-03-07T02:04:09;7.10;99.90
26212;DHT22;13951;49.516;6.094;2024-03-07T02:06:43;7.10;99.90
26212;DHT22;13951;49.516;6.094;2024-03-07T02:09:18;7.10;99.90
26212;DHT22;13951;49.516;6.094;2024-03-07T02:11:51;7.10;99.90
26212;DHT22;13951;49.516;6.094;2024-03-07T02:14:25;7.10;99.90
26212;DHT22;13951;49.516;6.094;2024-03-07T02:16:59;7.10;99.90
26212;DHT22;13951;49.516;6.094;2024-03-07T02:19:33;7.10;99.90
26212;DHT22;13951;49.516;6.094;2024-03-07T02:22:06;7.10;99.90
26212;DHT22;13951;49.516;6.094;2024-03-07T02:24:43;7.10;99.90
26212;DHT22;13951;49.516;6.094;2024-03-07T02:27:18;7.10;99.90
26212;DHT22;13951;49.516;6.094;2024-03-07T02:29:52;7.10;99.90
26212;DHT22;13951;49.516;6.094;2024-03-07T02:32:28;7.10;99.90
26212;DHT22;13951;49.516;6.094;2024-03-07T02:35:03;7.00;99.90
26212;DHT22;13951;49.516;6.094;2024-03-07T02:37:37;7.00;99.90
26212;DHT22;13951;49.516;6.094;2024-03-07T02:40:11;7.00;99.90
26212;DHT22;13951;49.516;6.094;2024-03-07T02:42:44;7.10;99.90
26212;DHT22;13951;49.516;6.094;2024-03-07T02:45:18;7.00;99.90
26212;DHT22;13951;49.516;6.094;2024-03-07T02:47:51;7.00;99.90
26212;DHT22;13951;49.516;6.094;2024-03-07T02:50:27;7.00;99.90
26212;DHT22;13951;49.516;6.094;2024-03-07T02:53:00;7.00;99.90
26212;DHT22;13951;49.516;6.094;2024-03-07T02:55:34;7.00;99.90
26212;DHT22;13951;49.516;6.094;2024-03-07T02:58:07;7.00;99.90
26212;DHT22;13951;49.516;6.094;2024-03-07T03:00:41;7.00;99.90
26212;DHT22;13951;49.516;6.094;2024-03-07T03:03:14;6.90;99.90
26212;DHT22;13951;49.516;6.094;2024-03-07T03:05:47;6.90;99.90
26212;DHT22;13951;49.516;6.094;2024-03-07T03:08:21;6.90;99.90
26212;DHT22;13951;49.516;6.094;2024-03-07T03:10:55;6.90;99.90
26212;DHT22;13951;49.516;6.094;2024-03-07T03:13:29;6.90;99.90
26212;DHT22;13951;49.516;6.094;2024-03-07T03:16:03;6.90;99.90
26212;DHT22;13951;49.516;6.094;2024-03-07T03:18:40;6.90;99.90
26212;DHT22;13951;49.516;6.094;2024-03-07T03:21:13;6.90;99.90
26212;DHT22;13951;49.516;6.094;2024-03-07T03:23:48;6.90;99.90
26212;DHT22;13951;49.516;6.094;2024-03-07T03:26:22;6.90;99.90
26212;DHT22;13951;49.516;6.094;2024-03-07T03:28:55;6.90;99.90
26212;DHT22;13951;49.516;6.094;2024-03-07T03:31:28;6.90;99.90
26212;DHT22;13951;49.516;6.094;2024-03-07T03:34:02;6.90;99.90
26212;DHT22;13951;49.516;6.094;2024-03-07T03:36:35;6.90;99.90
26212;DHT22;13951;49.516;6.094;2024-03-07T03:39:08;6.90;99.90
26212;DHT22;13951;49.516;6.094;2024-03-07T03:41:44;6.90;99.90
26212;DHT22;13951;49.516;6.094;2024-03-07T03:44:17;6.90;99.90
26212;DHT22;13951;49.516;6.094;2024-03-07T03:46:51;6.90;99.90
26212;DHT22;13951;49.516;6.094;2024-03-07T03:49:24;6.90;99.90
26212;DHT22;13951;49.516;6.094;2024-03-07T03:51:57;6.90;99.90
26212;DHT22;13951;49.516;6.094;2024-03-07T03:54:31;6.90;99.90
26212;DHT22;13951;49.516;6.094;2024-03-07T03:57:05;6.80;99.90
26212;DHT22;13951;49.516;6.094;2024-03-07T03:59:42;6.80;99.90
26212;DHT22;13951;49.516;6.094;2024-03-07T04:02:18;6.80;99.90
26212;DHT22;13951;49.516;6.094;2024-03-07T04:04:52;6.80;99.90
26212;DHT22;13951;49.516;6.094;2024-03-07T04:07:25;6.80;99.90
26212;DHT22;13951;49.516;6.094;2024-03-07T04:09:59;6.70;99.90
26212;DHT22;13951;49.516;6.094;2024-03-07T04:12:32;6.70;99.90
26212;DHT22;13951;49.516;6.094;2024-03-07T04:15:11;6.70;99.90
26212;DHT22;13951;49.516;6.094;2024-03-07T04:17:45;6.70;99.90
26212;DHT22;13951;49.516;6.094;2024-03-07T04:20:20;6.70;99.90
26212;DHT22;13951;49.516;6.094;2024-03-07T04:22:53;6.70;99.90
26212;DHT22;13951;49.516;6.094;2024-03-07T04:25:27;6.70;99.90
26212;DHT22;13951;49.516;6.094;2024-03-07T04:28:01;6.60;99.90
26212;DHT22;13951;49.516;6.094;2024-03-07T04:30:39;6.60;99.90
26212;DHT22;13951;49.516;6.094;2024-03-07T04:33:12;6.60;99.90
26212;DHT22;13951;49.516;6.094;2024-03-07T04:35:45;6.60;99.90
26212;DHT22;13951;49.516;6.094;2024-03-07T04:38:19;6.50;99.90
26212;DHT22;13951;49.516;6.094;2024-03-07T04:40:52;6.50;99.90
26212;DHT22;13951;49.516;6.094;2024-03-07T04:43:26;6.40;99.90
26212;DHT22;13951;49.516;6.094;2024-03-07T04:46:02;6.40;99.90
26212;DHT22;13951;49.516;6.094;2024-03-07T04:48:35;6.30;99.90
26212;DHT22;13951;49.516;6.094;2024-03-07T04:51:08;6.30;99.90
26212;DHT22;13951;49.516;6.094;2024-03-07T04:53:42;6.20;99.90
26212;DHT22;13951;49.516;6.094;2024-03-07T04:56:15;6.10;99.90
26212;DHT22;13951;49.516;6.094;2024-03-07T04:58:48;6.10;99.90
26212;DHT22;13951;49.516;6.094;2024-03-07T05:01:22;6.00;99.90
26212;DHT22;13951;49.516;6.094;2024-03-07T05:03:57;6.00;99.90
26212;DHT22;13951;49.516;6.094;2024-03-07T05:06:30;6.00;99.90
26212;DHT22;13951;49.516;6.094;2024-03-07T05:09:08;5.90;99.90
26212;DHT22;13951;49.516;6.094;2024-03-07T05:11:42;5.90;99.90
26212;DHT22;13951;49.516;6.094;2024-03-07T05:14:17;5.80;99.90
26212;DHT22;13951;49.516;6.094;2024-03-07T05:16:50;5.80;99.90
26212;DHT22;13951;49.516;6.094;2024-03-07T05:19:35;5.80;99.90
26212;DHT22;13951;49.516;6.094;2024-03-07T05:22:09;5.70;99.90
26212;DHT22;13951;49.516;6.094;2024-03-07T05:24:46;5.70;99.90
26212;DHT22;13951;49.516;6.094;2024-03-07T05:27:23;5.70;99.90
26212;DHT22;13951;49.516;6.094;2024-03-07T05:29:58;5.60;99.90
26212;DHT22;13951;49.516;6.094;2024-03-07T05:32:32;5.60;99.90
26212;DHT22;13951;49.516;6.094;2024-03-07T05:35:07;5.50;99.90
26212;DHT22;13951;49.516;6.094;2024-03-07T05:37:41;5.50;99.90
26212;DHT22;13951;49.516;6.094;2024-03-07T05:40:16;5.40;99.90
26212;DHT22;13951;49.516;6.094;2024-03-07T05:46:32;5.30;99.90
26212;DHT22;13951;49.516;6.094;2024-03-07T05:49:08;5.30;99.90
26212;DHT22;13951;49.516;6.094;2024-03-07T05:51:41;5.30;99.90
26212;DHT22;13951;49.516;6.094;2024-03-07T05:54:18;5.30;99.90
26212;DHT22;13951;49.516;6.094;2024-03-07T05:56:51;5.30;99.90
26212;DHT22;13951;49.516;6.094;2024-03-07T05:59:26;5.20;99.90
26212;DHT22;13951;49.516;6.094;2024-03-07T06:02:04;5.20;99.90
26212;DHT22;13951;49.516;6.094;2024-03-07T06:04:38;5.20;99.90
26212;DHT22;13951;49.516;6.094;2024-03-07T06:07:11;5.20;99.90
26212;DHT22;13951;49.516;6.094;2024-03-07T06:09:51;5.20;99.90
26212;DHT22;13951;49.516;6.094;2024-03-07T06:12:25;5.10;99.90
26212;DHT22;13951;49.516;6.094;2024-03-07T06:15:00;5.10;99.90
26212;DHT22;13951;49.516;6.094;2024-03-07T06:17:34;5.10;99.90
26212;DHT22;13951;49.516;6.094;2024-03-07T06:20:07;5.20;99.90
26212;DHT22;13951;49.516;6.094;2024-03-07T06:22:56;5.20;99.90
26212;DHT22;13951;49.516;6.094;2024-03-07T06:25:34;5.20;99.90
26212;DHT22;13951;49.516;6.094;2024-03-07T06:28:19;5.10;99.90
26212;DHT22;13951;49.516;6.094;2024-03-07T06:30:52;5.20;99.90
26212;DHT22;13951;49.516;6.094;2024-03-07T06:33:25;5.20;99.90
26212;DHT22;13951;49.516;6.094;2024-03-07T06:35:59;5.10;99.90
26212;DHT22;13951;49.516;6.094;2024-03-07T06:38:36;5.10;99.90
26212;DHT22;13951;49.516;6.094;2024-03-07T06:41:09;5.10;99.90
26212;DHT22;13951;49.516;6.094;2024-03-07T06:43:43;5.00;99.90
26212;DHT22;13951;49.516;6.094;2024-03-07T06:46:19;5.00;99.90
26212;DHT22;13951;49.516;6.094;2024-03-07T06:48:53;5.10;99.90
26212;DHT22;13951;49.516;6.094;2024-03-07T06:51:26;5.10;99.90
26212;DHT22;13951;49.516;6.094;2024-03-07T06:54:00;5.10;99.90
26212;DHT22;13951;49.516;6.094;2024-03-07T06:56:33;5.20;99.90
26212;DHT22;13951;49.516;6.094;2024-03-07T06:59:08;5.20;99.90
26212;DHT22;13951;49.516;6.094;2024-03-07T07:01:41;5.20;99.90
26212;DHT22;13951;49.516;6.094;2024-03-07T07:04:16;5.20;99.90
26212;DHT22;13951;49.516;6.094;2024-03-07T07:06:49;5.20;99.90
26212;DHT22;13951;49.516;6.094;2024-03-07T07:09:22;5.20;99.90
26212;DHT22;13951;49.516;6.094;2024-03-07T07:11:56;5.20;99.90
26212;DHT22;13951;49.516;6.094;2024-03-07T07:14:30;5.30;99.90
26212;DHT22;13951;49.516;6.094;2024-03-07T07:17:04;5.30;99.90
26212;DHT22;13951;49.516;6.094;2024-03-07T07:19:42;5.30;99.90
26212;DHT22;13951;49.516;6.094;2024-03-07T07:22:15;5.40;99.90
26212;DHT22;13951;49.516;6.094;2024-03-07T07:24:48;5.40;99.90
26212;DHT22;13951;49.516;6.094;2024-03-07T07:27:22;5.50;99.90
26212;DHT22;13951;49.516;6.094;2024-03-07T07:29:56;5.50;99.90
26212;DHT22;13951;49.516;6.094;2024-03-07T07:32:31;5.50;99.90
26212;DHT22;13951;49.516;6.094;2024-03-07T07:35:06;5.60;99.90
26212;DHT22;13951;49.516;6.094;2024-03-07T07:37:45;5.60;99.90
26212;DHT22;13951;49.516;6.094;2024-03-07T07:40:20;5.60;99.90
26212;DHT22;13951;49.516;6.094;2024-03-07T07:42:55;5.70;99.90
26212;DHT22;13951;49.516;6.094;2024-03-07T07:45:29;5.70;99.90
26212;DHT22;13951;49.516;6.094;2024-03-07T07:48:03;5.80;99.90
26212;DHT22;13951;49.516;6.094;2024-03-07T07:50:37;5.80;99.90
26212;DHT22;13951;49.516;6.094;2024-03-07T07:53:10;5.90;99.90
26212;DHT22;13951;49.516;6.094;2024-03-07T07:55:43;5.90;99.90
26212;DHT22;13951;49.516;6.094;2024-03-07T07:58:17;6.00;99.90
26212;DHT22;13951;49.516;6.094;2024-03-07T08:00:51;6.10;99.90
26212;DHT22;13951;49.516;6.094;2024-03-07T08:03:24;6.10;99.90
26212;DHT22;13951;49.516;6.094;2024-03-07T08:05:58;6.20;99.90
26212;DHT22;13951;49.516;6.094;2024-03-07T08:08:31;6.20;99.90
26212;DHT22;13951;49.516;6.094;2024-03-07T08:11:05;6.30;99.90
26212;DHT22;13951;49.516;6.094;2024-03-07T08:13:39;6.40;99.90
26212;DHT22;13951;49.516;6.094;2024-03-07T08:16:13;6.40;99.90
26212;DHT22;13951;49.516;6.094;2024-03-07T08:18:46;6.60;99.90
26212;DHT22;13951;49.516;6.094;2024-03-07T08:21:19;6.70;99.90
26212;DHT22;13951;49.516;6.094;2024-03-07T08:23:53;6.70;99.90
26212;DHT22;13951;49.516;6.094;2024-03-07T08:26:28;6.80;99.90
26212;DHT22;13951;49.516;6.094;2024-03-07T08:29:01;6.90;99.90
26212;DHT22;13951;49.516;6.094;2024-03-07T08:31:34;6.90;99.90
26212;DHT22;13951;49.516;6.094;2024-03-07T08:34:09;7.10;99.90
26212;DHT22;13951;49.516;6.094;2024-03-07T08:36:42;7.10;99.90
26212;DHT22;13951;49.516;6.094;2024-03-07T08:39:18;7.30;99.90
26212;DHT22;13951;49.516;6.094;2024-03-07T08:41:52;7.40;99.90
26212;DHT22;13951;49.516;6.094;2024-03-07T08:44:25;7.40;99.90
26212;DHT22;13951;49.516;6.094;2024-03-07T08:46:59;7.40;99.90
26212;DHT22;13951;49.516;6.094;2024-03-07T08:49:33;7.40;99.90
26212;DHT22;13951;49.516;6.094;2024-03-07T08:52:06;7.50;99.90
26212;DHT22;13951;49.516;6.094;2024-03-07T08:54:40;7.60;99.90
26212;DHT22;13951;49.516;6.094;2024-03-07T08:57:14;7.70;99.90
26212;DHT22;13951;49.516;6.094;2024-03-07T08:59:50;7.80;99.90
26212;DHT22;13951;49.516;6.094;2024-03-07T09:02:23;7.80;99.90
26212;DHT22;13951;49.516;6.094;2024-03-07T09:04:57;7.90;99.90
26212;DHT22;13951;49.516;6.094;2024-03-07T09:07:30;7.90;99.90
26212;DHT22;13951;49.516;6.094;2024-03-07T09:10:04;8.00;99.90
26212;DHT22;13951;49.516;6.094;2024-03-07T09:12:39;8.10;99.90
26212;DHT22;13951;49.516;6.094;2024-03-07T09:15:13;8.20;99.90
26212;DHT22;13951;49.516;6.094;2024-03-07T09:17:50;8.30;99.90
26212;DHT22;13951;49.516;6.094;2024-03-07T09:20:24;8.50;99.90
26212;DHT22;13951;49.516;6.094;2024-03-07T09:22:57;8.60;99.90
26212;DHT22;13951;49.516;6.094;2024-03-07T09:25:33;8.40;99.90
26212;DHT22;13951;49.516;6.094;2024-03-07T09:28:08;8.40;99.90
26212;DHT22;13951;49.516;6.094;2024-03-07T09:30:41;8.40;99.90
26212;DHT22;13951;49.516;6.094;2024-03-07T09:33:14;8.40;99.90
26212;DHT22;13951;49.516;6.094;2024-03-07T09:35:52;8.50;99.90
26212;DHT22;13951;49.516;6.094;2024-03-07T09:38:26;8.60;99.90
26212;DHT22;13951;49.516;6.094;2024-03-07T09:41:00;8.70;99.90
26212;DHT22;13951;49.516;6.094;2024-03-07T09:43:34;8.90;99.90
26212;DHT22;13951;49.516;6.094;2024-03-07T09:46:12;8.80;99.90
26212;DHT22;13951;49.516;6.094;2024-03-07T09:48:46;8.80;99.90
26212;DHT22;13951;49.516;6.094;2024-03-07T09:51:20;8.70;99.90
26212;DHT22;13951;49.516;6.094;2024-03-07T09:53:56;8.70;99.90
26212;DHT22;13951;49.516;6.094;2024-03-07T09:56:31;8.80;99.90
26212;DHT22;13951;49.516;6.094;2024-03-07T09:59:11;8.80;99.90
26212;DHT22;13951;49.516;6.094;2024-03-07T10:01:50;8.60;99.90
26212;DHT22;13951;49.516;6.094;2024-03-07T10:04:31;8.60;99.90
26212;DHT22;13951;49.516;6.094;2024-03-07T10:07:10;8.60;99.90
26212;DHT22;13951;49.516;6.094;2024-03-07T10:09:47;8.60;99.90
26212;DHT22;13951;49.516;6.094;2024-03-07T10:12:22;8.70;99.90
26212;DHT22;13951;49.516;6.094;2024-03-07T10:14:56;8.90;99.90
26212;DHT22;13951;49.516;6.094;2024-03-07T10:17:30;9.00;99.90
26212;DHT22;13951;49.516;6.094;2024-03-07T10:20:05;9.20;99.90
26212;DHT22;13951;49.516;6.094;2024-03-07T10:22:42;9.40;99.90
26212;DHT22;13951;49.516;6.094;2024-03-07T10:25:22;9.60;99.90
26212;DHT22;13951;49.516;6.094;2024-03-07T10:28:03;9.70;99.90
26212;DHT22;13951;49.516;6.094;2024-03-07T10:30:41;9.70;99.90
26212;DHT22;13951;49.516;6.094;2024-03-07T10:33:14;9.90;99.90
26212;DHT22;13951;49.516;6.094;2024-03-07T10:35:48;9.90;99.90
26212;DHT22;13951;49.516;6.094;2024-03-07T10:38:22;10.00;99.90
26212;DHT22;13951;49.516;6.094;2024-03-07T10:40:56;10.20;99.90
26212;DHT22;13951;49.516;6.094;2024-03-07T10:43:29;10.20;99.90
26212;DHT22;13951;49.516;6.094;2024-03-07T10:46:05;10.00;99.90
26212;DHT22;13951;49.516;6.094;2024-03-07T10:48:45;9.80;99.90
26212;DHT22;13951;49.516;6.094;2024-03-07T10:51:36;9.90;99.90
26212;DHT22;13951;49.516;6.094;2024-03-07T10:55:08;9.70;99.90
26212;DHT22;13951;49.516;6.094;2024-03-07T10:57:36;9.80;99.90
26212;DHT22;13951;49.516;6.094;2024-03-07T11:00:12;9.70;99.90
26212;DHT22;13951;49.516;6.094;2024-03-07T11:03:15;9.50;99.90
26212;DHT22;13951;49.516;6.094;2024-03-07T11:05:50;9.40;99.90
26212;DHT22;13951;49.516;6.094;2024-03-07T11:08:25;9.50;99.90
26212;DHT22;13951;49.516;6.094;2024-03-07T11:11:00;9.50;99.90
26212;DHT22;13951;49.516;6.094;2024-03-07T11:13:34;9.50;99.90
26212;DHT22;13951;49.516;6.094;2024-03-07T11:16:09;9.60;99.90
26212;DHT22;13951;49.516;6.094;2024-03-07T11:21:56;10.00;99.90
26212;DHT22;13951;49.516;6.094;2024-03-07T11:24:30;10.50;99.90
26212;DHT22;13951;49.516;6.094;2024-03-07T11:27:11;10.50;99.90
26212;DHT22;13951;49.516;6.094;2024-03-07T11:29:49;10.20;99.90
26212;DHT22;13951;49.516;6.094;2024-03-07T11:32:29;10.00;99.90
26212;DHT22;13951;49.516;6.094;2024-03-07T11:35:13;9.60;99.90
26212;DHT22;13951;49.516;6.094;2024-03-07T11:37:59;9.50;99.90
26212;DHT22;13951;49.516;6.094;2024-03-07T11:43:10;9.90;99.90
26212;DHT22;13951;49.516;6.094;2024-03-07T11:45:44;9.80;99.90
26212;DHT22;13951;49.516;6.094;2024-03-07T11:48:25;9.70;99.90
26212;DHT22;13951;49.516;6.094;2024-03-07T11:51:04;9.80;99.90
26212;DHT22;13951;49.516;6.094;2024-03-07T11:53:43;9.70;99.90
26212;DHT22;13951;49.516;6.094;2024-03-07T11:56:17;9.60;99.90
26212;DHT22;13951;49.516;6.094;2024-03-07T11:58:51;9.50;99.90
26212;DHT22;13951;49.516;6.094;2024-03-07T12:01:27;10.00;99.90
26212;DHT22;13951;49.516;6.094;2024-03-07T12:04:05;10.70;99.90
26212;DHT22;13951;49.516;6.094;2024-03-07T12:06:40;11.30;99.90
26212;DHT22;13951;49.516;6.094;2024-03-07T12:09:13;11.40;99.90
26212;DHT22;13951;49.516;6.094;2024-03-07T12:11:57;11.00;99.90
26212;DHT22;13951;49.516;6.094;2024-03-07T12:14:33;10.50;99.90
26212;DHT22;13951;49.516;6.094;2024-03-07T12:17:07;10.00;99.90
26212;DHT22;13951;49.516;6.094;2024-03-07T12:19:40;9.80;99.90
26212;DHT22;13951;49.516;6.094;2024-03-07T12:22:14;10.40;99.90
26212;DHT22;13951;49.516;6.094;2024-03-07T12:25:01;10.90;99.90
26212;DHT22;13951;49.516;6.094;2024-03-07T12:27:41;11.30;99.90
26212;DHT22;13951;49.516;6.094;2024-03-07T12:30:16;12.00;99.90
26212;DHT22;13951;49.516;6.094;2024-03-07T12:32:52;12.80;99.90
26212;DHT22;13951;49.516;6.094;2024-03-07T12:35:26;12.90;99.90
26212;DHT22;13951;49.516;6.094;2024-03-07T12:38:00;12.70;99.90
26212;DHT22;13951;49.516;6.094;2024-03-07T12:40:39;12.40;99.90
26212;DHT22;13951;49.516;6.094;2024-03-07T12:43:19;11.70;99.90
26212;DHT22;13951;49.516;6.094;2024-03-07T12:45:53;11.10;99.90
26212;DHT22;13951;49.516;6.094;2024-03-07T12:48:27;10.80;99.90
26212;DHT22;13951;49.516;6.094;2024-03-07T12:51:01;10.60;99.90
26212;DHT22;13951;49.516;6.094;2024-03-07T12:53:35;10.30;99.90
26212;DHT22;13951;49.516;6.094;2024-03-07T12:56:10;10.10;99.90
26212;DHT22;13951;49.516;6.094;2024-03-07T12:58:45;9.90;99.90
26212;DHT22;13951;49.516;6.094;2024-03-07T13:01:20;10.10;99.90
26212;DHT22;13951;49.516;6.094;2024-03-07T13:03:54;9.90;99.90
26212;DHT22;13951;49.516;6.094;2024-03-07T13:06:27;9.70;99.90
26212;DHT22;13951;49.516;6.094;2024-03-07T13:09:03;9.40;99.90
26212;DHT22;13951;49.516;6.094;2024-03-07T13:11:39;9.50;99.90
26212;DHT22;13951;49.516;6.094;2024-03-07T13:14:20;10.20;99.90
26212;DHT22;13951;49.516;6.094;2024-03-07T13:16:53;10.90;99.90
26212;DHT22;13951;49.516;6.094;2024-03-07T13:19:30;11.00;99.90
26212;DHT22;13951;49.516;6.094;2024-03-07T13:22:03;10.90;99.90
26212;DHT22;13951;49.516;6.094;2024-03-07T13:24:38;10.50;99.90
26212;DHT22;13951;49.516;6.094;2024-03-07T13:27:12;10.10;99.90
26212;DHT22;13951;49.516;6.094;2024-03-07T13:29:54;9.90;99.90
26212;DHT22;13951;49.516;6.094;2024-03-07T13:32:27;9.90;99.90
26212;DHT22;13951;49.516;6.094;2024-03-07T13:35:02;9.90;99.90
26212;DHT22;13951;49.516;6.094;2024-03-07T13:37:35;9.70;99.90
26212;DHT22;13951;49.516;6.094;2024-03-07T13:40:09;9.50;99.90
26212;DHT22;13951;49.516;6.094;2024-03-07T13:45:32;9.60;99.90
26212;DHT22;13951;49.516;6.094;2024-03-07T13:48:10;9.60;99.90
26212;DHT22;13951;49.516;6.094;2024-03-07T13:50:47;9.40;99.90
26212;DHT22;13951;49.516;6.094;2024-03-07T13:53:31;9.40;99.90
26212;DHT22;13951;49.516;6.094;2024-03-07T13:59:15;9.40;99.90
26212;DHT22;13951;49.516;6.094;2024-03-07T14:05:19;9.30;99.90
26212;DHT22;13951;49.516;6.094;2024-03-07T14:23:41;8.90;99.90
26212;DHT22;13951;49.516;6.094;2024-03-07T14:32:41;8.80;99.90
26212;DHT22;13951;49.516;6.094;2024-03-07T14:41:58;8.80;99.90
26212;DHT22;13951;49.516;6.094;2024-03-07T14:44:33;8.80;99.90
26212;DHT22;13951;49.516;6.094;2024-03-07T14:47:08;8.90;99.90
26212;DHT22;13951;49.516;6.094;2024-03-07T14:49:44;8.90;99.90
26212;DHT22;13951;49.516;6.094;2024-03-07T14:52:18;8.80;99.90
26212;DHT22;13951;49.516;6.094;2024-03-07T14:54:55;8.80;99.90
26212;DHT22;13951;49.516;6.094;2024-03-07T14:57:28;8.80;99.90
26212;DHT22;13951;49.516;6.094;2024-03-07T15:00:02;8.80;99.90
26212;DHT22;13951;49.516;6.094;2024-03-07T15:02:56;8.70;99.90
26212;DHT22;13951;49.516;6.094;2024-03-07T15:05:31;8.70;99.90
26212;DHT22;13951;49.516;6.094;2024-03-07T15:08:05;8.60;99.90
26212;DHT22;13951;49.516;6.094;2024-03-07T15:10:45;8.70;99.90
26212;DHT22;13951;49.516;6.094;2024-03-07T15:13:20;8.70;99.90
26212;DHT22;13951;49.516;6.094;2024-03-07T15:15:53;8.70;99.90
26212;DHT22;13951;49.516;6.094;2024-03-07T15:18:28;8.70;99.90
26212;DHT22;13951;49.516;6.094;2024-03-07T15:21:02;8.60;99.90
26212;DHT22;13951;49.516;6.094;2024-03-07T15:23:38;8.60;99.90
26212;DHT22;13951;49.516;6.094;2024-03-07T15:26:11;8.60;99.90
26212;DHT22;13951;49.516;6.094;2024-03-07T15:28:45;8.60;99.90
26212;DHT22;13951;49.516;6.094;2024-03-07T15:31:18;8.60;99.90
26212;DHT22;13951;49.516;6.094;2024-03-07T15:33:55;8.60;99.90
26212;DHT22;13951;49.516;6.094;2024-03-07T15:36:28;8.60;99.90
26212;DHT22;13951;49.516;6.094;2024-03-07T15:39:02;8.60;99.90
26212;DHT22;13951;49.516;6.094;2024-03-07T15:41:53;8.60;99.90
26212;DHT22;13951;49.516;6.094;2024-03-07T15:44:28;8.60;99.90
26212;DHT22;13951;49.516;6.094;2024-03-07T15:47:01;8.60;99.90
26212;DHT22;13951;49.516;6.094;2024-03-07T15:49:38;8.60;99.90
26212;DHT22;13951;49.516;6.094;2024-03-07T15:52:11;8.60;99.90
26212;DHT22;13951;49.516;6.094;2024-03-07T15:54:45;8.50;99.90
26212;DHT22;13951;49.516;6.094;2024-03-07T15:57:18;8.50;99.90
26212;DHT22;13951;49.516;6.094;2024-03-07T15:59:53;8.50;99.90
26212;DHT22;13951;49.516;6.094;2024-03-07T16:02:26;8.40;99.90
26212;DHT22;13951;49.516;6.094;2024-03-07T16:05:00;8.40;99.90
26212;DHT22;13951;49.516;6.094;2024-03-07T16:07:34;8.40;99.90
26212;DHT22;13951;49.516;6.094;2024-03-07T16:10:08;8.30;99.90
26212;DHT22;13951;49.516;6.094;2024-03-07T16:12:41;8.20;99.90
26212;DHT22;13951;49.516;6.094;2024-03-07T16:15:15;8.20;99.90
26212;DHT22;13951;49.516;6.094;2024-03-07T16:17:50;8.20;99.90
26212;DHT22;13951;49.516;6.094;2024-03-07T16:20:26;8.10;99.90
26212;DHT22;13951;49.516;6.094;2024-03-07T16:22:59;8.10;99.90
26212;DHT22;13951;49.516;6.094;2024-03-07T16:25:34;8.00;99.90
26212;DHT22;13951;49.516;6.094;2024-03-07T16:28:08;8.00;99.90
26212;DHT22;13951;49.516;6.094;2024-03-07T16:30:45;8.00;99.90
26212;DHT22;13951;49.516;6.094;2024-03-07T16:33:19;8.00;99.90
26212;DHT22;13951;49.516;6.094;2024-03-07T16:35:53;8.00;99.90
26212;DHT22;13951;49.516;6.094;2024-03-07T16:38:27;7.90;99.90
26212;DHT22;13951;49.516;6.094;2024-03-07T17:06:41;7.60;99.90
26212;DHT22;13951;49.516;6.094;2024-03-07T17:09:46;7.50;99.90
26212;DHT22;13951;49.516;6.094;2024-03-07T17:12:57;7.50;99.90
26212;DHT22;13951;49.516;6.094;2024-03-07T17:16:11;7.50;99.90
26212;DHT22;13951;49.516;6.094;2024-03-07T17:18:46;7.40;99.90
26212;DHT22;13951;49.516;6.094;2024-03-07T17:32:13;7.30;99.90
26212;DHT22;13951;49.516;6.094;2024-03-07T17:34:56;7.20;99.90
26212;DHT22;13951;49.516;6.094;2024-03-07T17:38:30;7.20;99.90
26212;DHT22;13951;49.516;6.094;2024-03-07T17:41:20;7.20;99.90
26212;DHT22;13951;49.516;6.094;2024-03-07T17:44:09;7.10;99.90
26212;DHT22;13951;49.516;6.094;2024-03-07T17:47:10;7.10;99.90
26212;DHT22;13951;49.516;6.094;2024-03-07T17:50:44;7.10;99.90
26212;DHT22;13951;49.516;6.094;2024-03-07T17:54:54;7.10;99.90
26212;DHT22;13951;49.516;6.094;2024-03-07T18:12:04;6.80;99.90
26212;DHT22;13951;49.516;6.094;2024-03-07T18:15:25;6.70;99.90
26212;DHT22;13951;49.516;6.094;2024-03-07T18:18:33;6.70;99.90
26212;DHT22;13951;49.516;6.094;2024-03-07T18:21:24;6.60;99.90
26212;DHT22;13951;49.516;6.094;2024-03-07T18:24:01;6.60;99.90